地図

経路データ

SID SEASON NUMBER BASIN SUBBASIN NAME ISO_TIME NATURE LAT LON WMO_WIND WMO_PRES WMO_AGENCY TRACK_TYPE DIST2LAND LANDFALL IFLAG USA_AGENCY USA_ATCF_ID USA_LAT USA_LON USA_RECORD USA_STATUS USA_WIND USA_PRES USA_SSHS USA_R34_NE USA_R34_SE USA_R34_SW USA_R34_NW USA_R50_NE USA_R50_SE USA_R50_SW USA_R50_NW USA_R64_NE USA_R64_SE USA_R64_SW USA_R64_NW USA_POCI USA_ROCI USA_RMW USA_EYE TOKYO_LAT TOKYO_LON TOKYO_GRADE TOKYO_WIND TOKYO_PRES TOKYO_R50_DIR TOKYO_R50_LONG TOKYO_R50_SHORT TOKYO_R30_DIR TOKYO_R30_LONG TOKYO_R30_SHORT TOKYO_LAND CMA_LAT CMA_LON CMA_CAT CMA_WIND CMA_PRES HKO_LAT HKO_LON HKO_CAT HKO_WIND HKO_PRES NEWDELHI_LAT NEWDELHI_LON NEWDELHI_GRADE NEWDELHI_WIND NEWDELHI_PRES NEWDELHI_CI NEWDELHI_DP NEWDELHI_POCI REUNION_LAT REUNION_LON REUNION_TYPE REUNION_WIND REUNION_PRES REUNION_TNUM REUNION_CI REUNION_RMW REUNION_R34_NE REUNION_R34_SE REUNION_R34_SW REUNION_R34_NW REUNION_R50_NE REUNION_R50_SE REUNION_R50_SW REUNION_R50_NW REUNION_R64_NE REUNION_R64_SE REUNION_R64_SW REUNION_R64_NW BOM_LAT BOM_LON BOM_TYPE BOM_WIND BOM_PRES BOM_TNUM BOM_CI BOM_RMW BOM_R34_NE BOM_R34_SE BOM_R34_SW BOM_R34_NW BOM_R50_NE BOM_R50_SE BOM_R50_SW BOM_R50_NW BOM_R64_NE BOM_R64_SE BOM_R64_SW BOM_R64_NW BOM_ROCI BOM_POCI BOM_EYE BOM_POS_METHOD BOM_PRES_METHOD NADI_LAT NADI_LON NADI_CAT NADI_WIND NADI_PRES WELLINGTON_LAT WELLINGTON_LON WELLINGTON_WIND WELLINGTON_PRES DS824_LAT DS824_LON DS824_STAGE DS824_WIND DS824_PRES TD9636_LAT TD9636_LON TD9636_STAGE TD9636_WIND TD9636_PRES TD9635_LAT TD9635_LON TD9635_WIND TD9635_PRES TD9635_ROCI NEUMANN_LAT NEUMANN_LON NEUMANN_CLASS NEUMANN_WIND NEUMANN_PRES MLC_LAT MLC_LON MLC_CLASS MLC_WIND MLC_PRES USA_GUST BOM_GUST BOM_GUST_PER REUNION_GUST REUNION_GUST_PER USA_SEAHGT USA_SEARAD_NE USA_SEARAD_SE USA_SEARAD_SW USA_SEARAD_NW STORM_SPEED STORM_DIR
1909091S17115 1909 22 SI WA NOT_NAMED 1909-04-01 06:00:00 NR -17.4000 115.000 main 400 395 _____O________ -1 -17.4000 115.000 99 9.90000 3 233
1909091S17115 1909 22 SI WA NOT_NAMED 1909-04-01 09:00:00 NR -17.4900 114.878 main 395 390 _____P________ -1 -17.4900 114.878 99 3 230
1909091S17115 1909 22 SI WA NOT_NAMED 1909-04-01 12:00:00 NR -17.5915 114.757 main 390 386 _____P________ -1 -17.5915 114.757 99 3 226
1909091S17115 1909 22 SI WA NOT_NAMED 1909-04-01 15:00:00 NR -17.7164 114.637 main 392 379 _____P________ -1 -17.7164 114.637 99 4 218
1909091S17115 1909 22 SI WA NOT_NAMED 1909-04-01 18:00:00 NR -17.8762 114.521 main 379 365 _____P________ -1 -17.8762 114.521 99 4 211
1909091S17115 1909 22 SI WA NOT_NAMED 1909-04-01 21:00:00 NR -18.0827 114.408 main 365 352 _____P________ -1 -18.0827 114.408 99 5 204
1909091S17115 1909 22 SI WA NOT_NAMED 1909-04-02 00:00:00 NR -18.3477 114.299 main 352 321 _____P________ -1 -18.3477 114.299 99 6 199
1909091S17115 1909 22 SI WA NOT_NAMED 1909-04-02 03:00:00 NR -18.6828 114.197 main 321 292 _____P________ -1 -18.6828 114.197 99 8 194
1909091S17115 1909 22 SI WA NOT_NAMED 1909-04-02 06:00:00 NR -19.1000 114.100 main 292 252 _____O________ -1 -19.1000 114.100 99 9.90000 9 191
1909091S17115 1909 22 SI WA NOT_NAMED 1909-04-02 09:00:00 NR -19.6051 114.011 main 252 201 _____P________ -1 -19.6051 114.011 99 11 188
1909091S17115 1909 22 SI WA NOT_NAMED 1909-04-02 12:00:00 NR -20.1808 113.931 main 190 123 _____P________ -1 -20.1808 113.931 99 12 186
1909091S17115 1909 22 SI WA NOT_NAMED 1909-04-02 15:00:00 NR -20.8035 113.863 main 123 59 _____P________ -1 -20.8035 113.863 99 13 185
1909091S17115 1909 22 SI WA NOT_NAMED 1909-04-02 18:00:00 NR -21.4498 113.810 main 59 10 _____P________ -1 -21.4498 113.810 99 13 183
1909091S17115 1909 22 SI WA NOT_NAMED 1909-04-02 21:00:00 NR -22.0961 113.774 main 10 0 _____P________ -1 -22.0961 113.774 99 13 182
1909091S17115 1909 22 SI WA NOT_NAMED 1909-04-03 00:00:00 NR -22.7189 113.759 main 0 0 _____P________ -1 -22.7189 113.759 99 12 181
1909091S17115 1909 22 SI WA NOT_NAMED 1909-04-03 03:00:00 NR -23.2946 113.767 main 0 0 _____P________ -1 -23.2946 113.767 99 11 178
1909091S17115 1909 22 SI WA NOT_NAMED 1909-04-03 06:00:00 NR -23.8000 113.800 main 0 0 _____O________ -1 -23.8000 113.800 99 9.90000 9 175
1909091S17115 1909 22 SI WA NOT_NAMED 1909-04-03 09:00:00 NR -24.2174 113.861 main 0 0 _____P________ -1 -24.2174 113.861 99 8 170
1909091S17115 1909 22 SI WA NOT_NAMED 1909-04-03 12:00:00 NR -24.5529 113.948 main 0 0 _____P________ -1 -24.5529 113.948 99 6 163
1909091S17115 1909 22 SI WA NOT_NAMED 1909-04-03 15:00:00 NR -24.8181 114.056 main 0 0 _____P________ -1 -24.8181 114.056 99 5 156
1909091S17115 1909 22 SI WA NOT_NAMED 1909-04-03 18:00:00 NR -25.0249 114.183 main 0 0 _____P________ -1 -25.0249 114.183 99 4 146
1909091S17115 1909 22 SI WA NOT_NAMED 1909-04-03 21:00:00 NR -25.1847 114.324 main 0 0 _____P________ -1 -25.1847 114.324 99 4 137
1909091S17115 1909 22 SI WA NOT_NAMED 1909-04-04 00:00:00 NR -25.3094 114.477 main 0 0 _____P________ -1 -25.3094 114.477 99 4 129
1909091S17115 1909 22 SI WA NOT_NAMED 1909-04-04 03:00:00 NR -25.4106 114.636 main 0 0 _____P________ -1 -25.4106 114.636 99 3 123
1909091S17115 1909 22 SI WA NOT_NAMED 1909-04-04 06:00:00 NR -25.5000 114.800 main 0 _____O________ -1 -25.5000 114.800 99 9.90000 3 121

IBTrACS Databaseについて

本データベースは、米国NOAAが公開する1842年以降の世界の熱帯低気圧のベストトラックデータアーカイブInternational Best Track Archive for Climate Stewardship (IBTrACS)を、ウェブで閲覧しやすい形式に変換したものです。

最終更新日:2021-12-01